Time;durP1;ratioP1;P1;durP2;ratioP2;P2;SDS_P1;SDS_P2;PMS_P1;PMS_P2;Temp;Humidity;BMP_temperature;BMP_pressure;BME280_temperature;BME280_humidity;BME280_pressure;Samples;Min_cycle;Max_cycle;Signal;HPM_P1;HPM_P2
2022/10/20 00:01:35;;;;;;;16.15;7.13;;;7.70;99.90;;;;;;5100676;27;20058;-70
2022/10/20 00:04:00;;;;;;;8.63;6.30;;;7.70;99.90;;;;;;5116317;27;20121;-71
2022/10/20 00:06:28;;;;;;;;;;;7.70;99.90;;;;;;5111867;27;20059;-71
2022/10/20 00:08:57;;;;;;;;;;;7.70;99.90;;;;;;5113253;28;19920;-72
2022/10/20 00:11:30;;;;;;;10.68;6.20;;;7.70;99.90;;;;;;5101226;28;19920;-71
2022/10/20 00:14:02;;;;;;;17.20;7.30;;;7.80;99.90;;;;;;5107495;28;20092;-71
2022/10/20 00:16:29;;;;;;;10.05;6.22;;;7.70;99.90;;;;;;5117486;27;20442;-71
2022/10/20 00:18:58;;;;;;;17.58;6.78;;;7.80;99.90;;;;;;5089388;28;20066;-71
2022/10/20 00:21:33;;;;;;;12.60;6.68;;;7.80;99.90;;;;;;5086117;28;20036;-72
2022/10/20 00:24:05;;;;;;;12.57;6.78;;;7.70;99.90;;;;;;5097576;28;20035;-70
2022/10/20 00:26:32;;;;;;;18.05;7.18;;;7.70;99.90;;;;;;5108426;28;20048;-71
2022/10/20 00:29:11;;;;;;;11.90;6.13;;;7.80;99.90;;;;;;5101197;27;20123;-70
2022/10/20 00:31:37;;;;;;;15.20;6.85;;;7.80;99.90;;;;;;5076773;28;20109;-71
2022/10/20 00:34:06;;;;;;;12.45;6.43;;;7.80;99.90;;;;;;5092852;28;20024;-71
2022/10/20 00:36:33;;;;;;;14.85;6.10;;;7.80;99.90;;;;;;5096456;28;20072;-72
2022/10/20 00:39:04;;;;;;;15.48;6.60;;;7.80;99.90;;;;;;5107162;28;20043;-72
2022/10/20 00:41:36;;;;;;;11.65;6.35;;;7.80;99.90;;;;;;5103999;28;20505;-72
2022/10/20 00:44:39;;;;;;;10.27;6.10;;;7.80;99.90;;;;;;5096489;28;20040;-71
2022/10/20 00:47:13;;;;;;;14.68;6.75;;;7.80;99.90;;;;;;5086913;28;20028;-71
2022/10/20 00:49:40;;;;;;;12.90;6.60;;;7.80;99.90;;;;;;5094659;28;20071;-71
2022/10/20 00:52:14;;;;;;;13.60;6.78;;;7.90;99.90;;;;;;5107363;28;20042;-71
2022/10/20 00:54:45;;;;;;;19.92;7.85;;;7.90;99.90;;;;;;5099467;28;20531;-72
2022/10/20 00:57:12;;;;;;;15.57;6.25;;;8.00;99.90;;;;;;5091047;28;20036;-71
2022/10/20 00:59:58;;;;;;;13.93;6.75;;;8.00;99.90;;;;;;5097689;28;20396;-71
2022/10/20 01:02:30;;;;;;;12.82;6.57;;;8.00;99.90;;;;;;5084926;28;20051;-71
2022/10/20 01:04:58;;;;;;;12.63;7.20;;;8.00;99.90;;;;;;5086619;28;20054;-71
2022/10/20 01:07:24;;;;;;;;;;;8.10;99.90;;;;;;5088774;28;20500;-71
2022/10/20 01:09:50;;;;;;;13.00;6.18;;;8.10;99.90;;;;;;5085849;28;19939;-71
2022/10/20 01:12:34;;;;;;;17.17;6.40;;;8.10;99.90;;;;;;5086314;28;20044;-71
2022/10/20 01:15:09;;;;;;;10.10;5.63;;;8.10;99.90;;;;;;5086831;28;20028;-71
2022/10/20 01:18:03;;;;;;;16.25;6.45;;;8.10;99.90;;;;;;5095521;28;20101;-71
2022/10/20 01:20:51;;;;;;;13.63;6.55;;;8.00;99.90;;;;;;5095389;28;20047;-71
2022/10/20 01:23:42;;;;;;;10.60;6.13;;;8.10;99.90;;;;;;5090585;28;20107;-71
2022/10/20 01:26:28;;;;;;;11.30;5.85;;;8.10;99.90;;;;;;5100833;28;20044;-72
2022/10/20 01:29:03;;;;;;;12.55;6.57;;;8.10;99.90;;;;;;5106104;28;20032;-72
2022/10/20 01:31:45;;;;;;;12.77;6.40;;;8.10;99.90;;;;;;5088558;28;20063;-71
2022/10/20 01:34:29;;;;;;;12.70;6.13;;;8.10;99.90;;;;;;5085911;28;20059;-71
2022/10/20 01:37:04;;;;;;;14.32;5.18;;;8.10;99.90;;;;;;5088169;28;20047;-71
2022/10/20 01:40:00;;;;;;;15.05;5.38;;;8.10;99.90;;;;;;5085457;28;20504;-70
2022/10/20 01:42:28;;;;;;;10.05;5.18;;;8.00;99.90;;;;;;5088861;28;20063;-70
2022/10/20 01:45:02;;;;;;;9.80;4.35;;;8.00;99.90;;;;;;5087187;28;20100;-70
2022/10/20 01:47:29;;;;;;;15.88;6.75;;;8.00;99.90;;;;;;5085012;28;20036;-70
2022/10/20 01:49:56;;;;;;;17.08;6.60;;;7.90;99.90;;;;;;5094704;28;20047;-70
2022/10/20 01:52:23;;;;;;;12.25;5.85;;;8.00;99.90;;;;;;5104206;28;20074;-70
2022/10/20 01:54:49;;;;;;;17.80;6.53;;;8.00;99.90;;;;;;5105716;28;20062;-70
2022/10/20 01:57:14;;;;;;;;;;;8.00;99.90;;;;;;5106959;28;20491;-70
2022/10/20 01:59:56;;;;;;;9.15;5.80;;;8.00;99.90;;;;;;5105295;28;19922;-70
2022/10/20 02:03:03;;;;;;;9.52;6.45;;;8.00;99.90;;;;;;5083835;28;20040;-70
2022/10/20 02:05:57;;;;;;;12.35;6.20;;;8.00;99.90;;;;;;5080242;28;20086;-70
2022/10/20 02:08:45;;;;;;;12.80;5.78;;;8.00;99.90;;;;;;5093351;28;20127;-70
2022/10/20 02:11:27;;;;;;;15.13;6.75;;;8.10;99.90;;;;;;5094477;28;20110;-70
2022/10/20 02:13:55;;;;;;;12.15;6.43;;;8.00;99.90;;;;;;5104498;28;20036;-70
2022/10/20 02:16:29;;;;;;;15.40;6.65;;;8.10;99.90;;;;;;5094568;28;20128;-70
2022/10/20 02:18:56;;;;;;;9.68;6.57;;;8.00;99.90;;;;;;5092948;28;20036;-70
2022/10/20 02:21:22;;;;;;;17.63;6.03;;;8.00;99.90;;;;;;5097427;28;20044;-70
2022/10/20 02:23:49;;;;;;;;;;;8.00;99.90;;;;;;5095620;28;20040;-70
2022/10/20 02:26:19;;;;;;;13.98;6.28;;;8.00;99.90;;;;;;5097417;28;20295;-70
2022/10/20 02:28:49;;;;;;;15.35;6.88;;;8.00;99.90;;;;;;5084108;28;20047;-70
2022/10/20 02:31:16;;;;;;;12.15;5.95;;;8.00;99.90;;;;;;5083969;28;20060;-70
2022/10/20 02:33:43;;;;;;;9.23;5.65;;;8.00;99.90;;;;;;5084009;28;20652;-70
2022/10/20 02:36:16;;;;;;;8.82;6.22;;;8.00;99.90;;;;;;5085276;28;20083;-69
2022/10/20 02:38:42;;;;;;;13.48;7.35;;;7.90;99.90;;;;;;5094575;28;20046;-70
2022/10/20 02:41:07;;;;;;;;;;;7.90;99.90;;;;;;5099661;28;20115;-70
2022/10/20 02:43:33;;;;;;;9.35;6.00;;;7.90;99.90;;;;;;5101650;28;20571;-70
2022/10/20 02:45:58;;;;;;;;;;;7.90;99.90;;;;;;5090964;28;20399;-70
2022/10/20 02:48:24;;;;;;;9.68;6.28;;;7.90;99.90;;;;;;5092257;28;19966;-70
2022/10/20 02:50:50;;;;;;;;;;;7.90;99.90;;;;;;5084663;28;20670;-70
2022/10/20 02:53:15;;;;;;;10.05;6.95;;;8.00;99.90;;;;;;5097234;28;19927;-70
2022/10/20 02:55:41;;;;;;;;;;;7.90;99.90;;;;;;5085414;28;20036;-70
2022/10/20 02:58:07;;;;;;;12.95;6.13;;;7.90;99.90;;;;;;5090819;28;20515;-70
2022/10/20 03:00:32;;;;;;;11.73;6.07;;;7.90;99.90;;;;;;5082763;28;20187;-70
2022/10/20 03:02:58;;;;;;;;;;;7.90;99.90;;;;;;5084743;28;20549;-70
2022/10/20 03:05:24;;;;;;;9.60;5.65;;;7.90;99.90;;;;;;5083900;28;19920;-71
2022/10/20 03:07:49;;;;;;;17.92;6.18;;;8.00;99.90;;;;;;5096281;28;20749;-69
2022/10/20 03:10:15;;;;;;;;;;;7.90;99.90;;;;;;5084620;28;20122;-70
2022/10/20 03:12:41;;;;;;;10.57;5.50;;;7.90;99.90;;;;;;5099328;28;19958;-70
2022/10/20 03:15:06;;;;;;;;;;;7.90;99.90;;;;;;5105499;28;20039;-71
2022/10/20 03:17:32;;;;;;;15.13;5.70;;;7.90;99.90;;;;;;5091984;28;19939;-70
2022/10/20 03:19:58;;;;;;;14.00;5.90;;;7.90;99.90;;;;;;5092609;28;20079;-70
2022/10/20 03:22:23;;;;;;;;;;;7.90;99.90;;;;;;5092762;28;20062;-70
2022/10/20 03:24:49;;;;;;;12.73;6.15;;;7.90;99.90;;;;;;5103690;28;19922;-70
2022/10/20 03:27:15;;;;;;;;;;;7.90;99.90;;;;;;5102632;28;20052;-70
2022/10/20 03:29:40;;;;;;;11.35;5.40;;;7.90;99.90;;;;;;5095773;28;20017;-70
2022/10/20 03:32:06;;;;;;;8.23;5.35;;;8.00;99.90;;;;;;5101679;28;20499;-70
2022/10/20 03:34:31;;;;;;;;;;;7.90;99.90;;;;;;5105072;28;20644;-70
2022/10/20 03:36:57;;;;;;;11.98;5.38;;;7.90;99.90;;;;;;5101387;28;19965;-70
2022/10/20 03:39:23;;;;;;;9.88;4.75;;;7.90;99.90;;;;;;5086214;28;20036;-70
2022/10/20 03:41:48;;;;;;;12.05;4.18;;;7.90;99.90;;;;;;5089443;28;20044;-70
2022/10/20 03:44:14;;;;;;;;;;;7.90;99.90;;;;;;5104912;28;20035;-70
2022/10/20 03:46:39;;;;;;;12.90;4.53;;;8.00;99.90;;;;;;5098025;28;19924;-70
2022/10/20 03:49:05;;;;;;;;;;;8.00;99.90;;;;;;5089511;28;20612;-70
2022/10/20 03:51:31;;;;;;;7.43;3.97;;;8.10;99.90;;;;;;5083871;28;19993;-70
2022/10/20 03:53:56;;;;;;;;;;;8.10;99.90;;;;;;5106773;28;20039;-70
2022/10/20 03:56:22;;;;;;;9.25;4.57;;;8.10;99.90;;;;;;5105012;28;19920;-70
2022/10/20 03:58:48;;;;;;;12.43;4.47;;;8.10;99.90;;;;;;5091149;28;20772;-70
2022/10/20 04:01:17;;;;;;;;;;;8.10;99.90;;;;;;5107898;28;20036;-71
2022/10/20 04:03:43;;;;;;;9.25;5.63;;;8.10;99.90;;;;;;5092242;28;20354;-70
2022/10/20 04:06:10;;;;;;;;;;;8.20;99.90;;;;;;5088020;28;20084;-70
2022/10/20 04:08:36;;;;;;;12.32;4.57;;;8.10;99.90;;;;;;5098202;28;19922;-70
2022/10/20 04:11:02;;;;;;;;;;;8.20;99.90;;;;;;5107864;28;20043;-71
2022/10/20 04:13:27;;;;;;;6.63;4.10;;;8.20;99.90;;;;;;5107378;28;20291;-70
2022/10/20 04:15:53;;;;;;;;;;;8.20;99.90;;;;;;5107287;28;20109;-70
2022/10/20 04:18:18;;;;;;;8.43;5.38;;;8.20;99.90;;;;;;5093987;28;19999;-69
2022/10/20 04:20:44;;;;;;;;;;;8.20;99.90;;;;;;5088136;28;20154;-70
2022/10/20 04:23:10;;;;;;;10.90;4.65;;;8.20;99.90;;;;;;5092726;28;19915;-70
2022/10/20 04:25:39;;;;;;;12.95;5.50;;;8.20;99.90;;;;;;5107035;27;20046;-69
2022/10/20 04:28:05;;;;;;;11.50;5.45;;;8.20;99.90;;;;;;5100208;28;20470;-70
2022/10/20 04:30:30;;;;;;;;;;;8.20;99.90;;;;;;5085829;28;20040;-69
2022/10/20 04:32:56;;;;;;;10.23;4.82;;;8.20;99.90;;;;;;5090053;28;19927;-70
2022/10/20 04:35:22;;;;;;;;;;;8.10;99.90;;;;;;5098160;28;20054;-70
2022/10/20 04:37:47;;;;;;;12.40;4.75;;;8.10;99.90;;;;;;5101981;28;19926;-70
2022/10/20 04:40:13;;;;;;;;;;;8.10;99.90;;;;;;5086725;28;20066;-69
2022/10/20 04:42:38;;;;;;;8.27;4.80;;;8.10;99.90;;;;;;5087340;28;20010;-70
2022/10/20 04:45:04;;;;;;;;;;;8.10;99.90;;;;;;5106294;28;20046;-69
2022/10/20 04:47:31;;;;;;;7.93;4.35;;;8.10;99.90;;;;;;5103968;27;19919;-70
2022/10/20 04:49:57;;;;;;;16.52;5.82;;;8.10;99.90;;;;;;5107446;27;20036;-65
2022/10/20 04:52:22;;;;;;;;;;;8.10;99.90;;;;;;5123545;27;20118;-69
2022/10/20 04:54:49;;;;;;;9.05;5.20;;;8.10;99.90;;;;;;5110486;27;19990;-70
2022/10/20 04:57:14;;;;;;;7.22;4.90;;;8.10;99.90;;;;;;5105510;27;20051;-66
2022/10/20 04:59:40;;;;;;;;;;;8.10;99.90;;;;;;5107553;27;20112;-68
2022/10/20 05:02:05;;;;;;;8.75;5.20;;;8.10;99.90;;;;;;5109851;27;19915;-67
2022/10/20 05:04:31;;;;;;;;;;;8.10;99.90;;;;;;5119190;27;20074;-68
2022/10/20 05:06:56;;;;;;;10.77;4.18;;;8.00;99.90;;;;;;5104204;28;19924;-68
2022/10/20 05:09:22;;;;;;;13.55;4.47;;;8.00;99.90;;;;;;5101579;28;20073;-68
2022/10/20 05:11:47;;;;;;;;;;;7.90;99.90;;;;;;5107193;28;20085;-68
2022/10/20 05:14:13;;;;;;;8.13;4.30;;;7.90;99.90;;;;;;5096761;28;20629;-68
2022/10/20 05:16:39;;;;;;;12.07;4.68;;;7.80;99.90;;;;;;5086244;28;20096;-68
2022/10/20 05:19:06;;;;;;;;;;;7.80;99.90;;;;;;5091622;28;20047;-68
2022/10/20 05:21:37;;;;;;;6.65;4.03;;;7.80;99.90;;;;;;5093237;28;19939;-68
2022/10/20 05:24:04;;;;;;;9.55;4.78;;;7.80;99.90;;;;;;5096106;28;20089;-68
2022/10/20 05:26:36;;;;;;;7.57;4.28;;;7.80;99.90;;;;;;5087532;28;20051;-67
2022/10/20 05:29:08;;;;;;;12.38;4.38;;;7.70;99.90;;;;;;5086373;28;20044;-63
2022/10/20 05:31:41;;;;;;;13.23;5.35;;;7.70;99.90;;;;;;5081397;27;20575;-68
2022/10/20 05:34:13;;;;;;;10.05;5.80;;;7.80;99.90;;;;;;5112425;27;20039;-67
2022/10/20 05:36:41;;;;;;;14.48;5.55;;;7.90;99.90;;;;;;5116850;27;20043;-67
2022/10/20 05:39:09;;;;;;;12.63;6.78;;;8.00;99.90;;;;;;5125971;27;20320;-68
2022/10/20 05:41:40;;;;;;;17.08;6.75;;;8.00;99.90;;;;;;5120397;27;20049;-64
2022/10/20 05:44:11;;;;;;;16.50;8.05;;;8.10;99.90;;;;;;5107908;27;20032;-67
2022/10/20 05:46:39;;;;;;;16.45;9.00;;;8.30;99.90;;;;;;5110452;27;20067;-67
2022/10/20 05:49:08;;;;;;;14.40;9.63;;;8.40;99.90;;;;;;5117323;27;20093;-66
2022/10/20 05:51:36;;;;;;;16.70;8.70;;;8.60;99.90;;;;;;5106269;27;20040;-67
2022/10/20 05:54:04;;;;;;;;;;;8.70;99.90;;;;;;5109195;27;20393;-68
2022/10/20 05:56:33;;;;;;;16.20;9.40;;;8.90;99.90;;;;;;5105790;27;19919;-67
2022/10/20 05:58:58;;;;;;;18.05;10.23;;;8.90;99.90;;;;;;5101096;27;20883;-65
2022/10/20 06:01:37;;;;;;;;;;;9.00;99.90;;;;;;5117569;27;20063;-66
2022/10/20 06:04:07;;;;;;;16.33;9.18;;;9.10;99.90;;;;;;5104323;27;20004;-66
2022/10/20 06:06:33;;;;;;;21.38;11.23;;;9.10;99.90;;;;;;5111736;27;20481;-66
2022/10/20 06:09:03;;;;;;;18.25;10.30;;;9.20;99.90;;;;;;5111702;27;20043;-68
2022/10/20 06:11:37;;;;;;;17.40;10.52;;;9.20;99.90;;;;;;5099803;27;20067;-68
2022/10/20 06:14:08;;;;;;;15.15;9.20;;;9.30;99.90;;;;;;5117243;27;20080;-68
2022/10/20 06:16:34;;;;;;;14.07;8.77;;;9.40;99.90;;;;;;5084316;28;20565;-70
2022/10/20 06:19:07;;;;;;;13.32;8.95;;;9.40;99.90;;;;;;5094981;28;20039;-68
2022/10/20 06:21:42;;;;;;;16.75;8.68;;;9.40;99.90;;;;;;5084413;28;20047;-68
2022/10/20 06:24:10;;;;;;;;;;;9.40;99.90;;;;;;5089240;28;20127;-68
2022/10/20 06:26:42;;;;;;;16.38;7.85;;;9.50;99.90;;;;;;5100530;28;19920;-68
2022/10/20 06:29:18;;;;;;;14.95;8.30;;;9.50;99.90;;;;;;5104801;28;20542;-69
2022/10/20 06:31:48;;;;;;;12.10;6.93;;;9.50;99.90;;;;;;5085030;28;20036;-68
2022/10/20 06:34:23;;;;;;;16.23;8.20;;;9.40;99.90;;;;;;5085386;28;20028;-70
2022/10/20 06:37:11;;;;;;;13.70;6.72;;;9.40;99.90;;;;;;5067650;28;20063;-69
2022/10/20 06:39:45;;;;;;;13.30;6.82;;;9.30;99.90;;;;;;5084841;28;20040;-69
2022/10/20 06:42:20;;;;;;;13.07;6.63;;;9.20;99.90;;;;;;5084734;28;20079;-69
2022/10/20 06:44:51;;;;;;;10.80;6.10;;;9.00;99.90;;;;;;5084919;28;20131;-68
2022/10/20 06:47:19;;;;;;;14.57;6.80;;;8.90;99.90;;;;;;5085132;28;20134;-70
2022/10/20 06:49:47;;;;;;;8.23;5.70;;;8.90;99.90;;;;;;5084350;28;20043;-69
2022/10/20 06:52:13;;;;;;;9.60;5.60;;;8.90;99.90;;;;;;5106373;28;20439;-69
2022/10/20 06:54:44;;;;;;;12.10;6.38;;;8.90;99.90;;;;;;5095928;28;20108;-67
2022/10/20 06:57:16;;;;;;;;;;;8.90;99.90;;;;;;5094160;28;20071;-67
2022/10/20 06:59:46;;;;;;;8.65;5.88;;;8.90;99.90;;;;;;5085226;28;19916;-72
2022/10/20 07:02:20;;;;;;;8.55;5.78;;;8.90;99.90;;;;;;5061693;28;20044;-71
2022/10/20 07:04:49;;;;;;;19.38;8.07;;;9.00;99.90;;;;;;5095752;28;20032;-69
2022/10/20 07:07:14;;;;;;;13.73;7.20;;;9.00;99.90;;;;;;5084883;28;20059;-68
2022/10/20 07:09:43;;;;;;;;;;;9.10;99.90;;;;;;5084745;28;20730;-68
2022/10/20 07:12:11;;;;;;;10.57;6.43;;;9.10;99.90;;;;;;5089813;28;20378;-66
2022/10/20 07:14:40;;;;;;;11.43;7.70;;;9.20;99.90;;;;;;5086012;28;20063;-64
2022/10/20 07:17:08;;;;;;;14.02;8.85;;;9.20;99.90;;;;;;5081497;28;20114;-68
2022/10/20 07:19:36;;;;;;;15.85;9.88;;;9.30;99.90;;;;;;5096167;28;20048;-67
2022/10/20 07:22:07;;;;;;;15.98;9.13;;;9.30;99.90;;;;;;5097676;28;20039;-68
2022/10/20 07:24:35;;;;;;;17.48;9.60;;;9.20;99.90;;;;;;5094549;28;20454;-66
2022/10/20 07:27:09;;;;;;;34.42;10.02;;;9.30;99.90;;;;;;5100032;28;20681;-66
2022/10/20 07:29:36;;;;;;;13.10;8.68;;;9.30;99.90;;;;;;5117851;27;20050;-61
2022/10/20 07:32:04;;;;;;;15.18;8.70;;;9.40;99.90;;;;;;5098904;27;20651;-66
2022/10/20 07:34:32;;;;;;;16.90;8.73;;;9.40;99.90;;;;;;5096383;27;20040;-68
2022/10/20 07:37:01;;;;;;;16.75;9.68;;;9.40;99.90;;;;;;5106379;27;20486;-68
2022/10/20 07:39:27;;;;;;;17.88;10.20;;;9.40;99.90;;;;;;5111177;27;20048;-68
2022/10/20 07:41:58;;;;;;;16.98;10.75;;;9.40;99.90;;;;;;5110940;27;20046;-68
2022/10/20 07:44:24;;;;;;;14.80;9.70;;;9.40;99.90;;;;;;5119515;27;20502;-68
2022/10/20 07:47:13;;;;;;;19.25;9.88;;;9.50;99.90;;;;;;5106116;27;20047;-69
2022/10/20 07:49:42;;;;;;;21.75;9.75;;;9.50;99.90;;;;;;5121405;27;20051;-68
2022/10/20 07:52:11;;;;;;;14.55;9.30;;;9.60;99.90;;;;;;5114554;27;20053;-68
2022/10/20 07:54:36;;;;;;;18.35;9.48;;;9.60;99.90;;;;;;5106908;27;20042;-69
2022/10/20 07:57:07;;;;;;;;;;;9.60;99.90;;;;;;5104919;27;20043;-70
2022/10/20 07:59:36;;;;;;;15.68;8.95;;;9.50;99.90;;;;;;5103966;27;20372;-70
2022/10/20 08:02:03;;;;;;;20.73;10.43;;;9.50;99.90;;;;;;5101089;27;20067;-70
2022/10/20 08:04:31;;;;;;;14.48;9.32;;;9.50;99.90;;;;;;5104277;27;20036;-71
2022/10/20 08:06:58;;;;;;;20.35;9.32;;;9.60;99.90;;;;;;5105085;27;20039;-69
2022/10/20 08:09:23;;;;;;;17.80;10.18;;;9.70;99.90;;;;;;5094617;28;20072;-68
2022/10/20 08:11:50;;;;;;;;;;;9.70;99.90;;;;;;5098584;27;20074;-70
2022/10/20 08:14:16;;;;;;;15.43;8.93;;;9.80;99.90;;;;;;5106182;28;19919;-67
2022/10/20 08:16:41;;;;;;;;;;;9.90;99.90;;;;;;5103454;28;20085;-70
2022/10/20 08:19:07;;;;;;;15.15;9.20;;;10.10;99.90;;;;;;5093929;28;19977;-70
2022/10/20 08:21:32;;;;;;;;;;;10.30;99.90;;;;;;5104580;28;20028;-68
2022/10/20 08:23:58;;;;;;;17.33;9.00;;;10.50;99.90;;;;;;5103556;28;19951;-68
2022/10/20 08:26:24;;;;;;;;;;;10.60;99.90;;;;;;5106859;28;20047;-69
2022/10/20 08:28:52;;;;;;;16.95;9.05;;;10.70;99.90;;;;;;5095225;27;19919;-68
2022/10/20 08:31:18;;;;;;;20.10;8.32;;;10.80;99.90;;;;;;5106171;27;20052;-69
2022/10/20 08:33:44;;;;;;;;;;;10.90;99.90;;;;;;5107140;27;20055;-69
2022/10/20 08:36:12;;;;;;;14.43;8.40;;;10.90;99.90;;;;;;5095414;28;19937;-67
2022/10/20 08:38:39;;;;;;;11.85;7.32;;;11.10;99.90;;;;;;5090270;28;20039;-68
2022/10/20 08:41:12;;;;;;;16.52;7.43;;;11.10;99.90;;;;;;5094287;28;20035;-68
2022/10/20 08:43:41;;;;;;;15.68;7.90;;;11.10;99.90;;;;;;5095727;28;20036;-66
2022/10/20 08:46:13;;;;;;;22.70;7.65;;;11.20;99.90;;;;;;5092424;28;20127;-64
2022/10/20 08:48:40;;;;;;;11.30;7.35;;;11.20;99.90;;;;;;5090335;28;20046;-65
2022/10/20 08:51:24;;;;;;;10.43;6.68;;;11.30;99.90;;;;;;5094285;28;20150;-66
2022/10/20 08:53:53;;;;;;;11.50;7.75;;;11.30;99.90;;;;;;5097771;28;20093;-65
2022/10/20 08:56:23;;;;;;;11.00;7.65;;;11.50;99.90;;;;;;5076947;28;20048;-65
2022/10/20 08:58:48;;;;;;;13.07;6.63;;;11.50;99.90;;;;;;5096570;28;20032;-67
2022/10/20 09:01:22;;;;;;;;;;;11.60;99.90;;;;;;5094849;28;20085;-67
2022/10/20 09:04:02;;;;;;;12.60;6.97;;;11.80;99.90;;;;;;5092076;28;19915;-66
2022/10/20 09:06:28;;;;;;;13.75;7.22;;;11.90;99.90;;;;;;5097045;28;20779;-68
2022/10/20 09:08:54;;;;;;;;;;;12.00;99.90;;;;;;5096569;27;20040;-68
2022/10/20 09:11:27;;;;;;;14.57;7.13;;;12.00;99.90;;;;;;5096317;28;19915;-66
2022/10/20 09:13:53;;;;;;;11.85;6.63;;;12.20;99.90;;;;;;5095867;28;20036;-66
2022/10/20 09:16:39;;;;;;;;;;;12.20;99.90;;;;;;5090949;28;20048;-65
2022/10/20 09:19:18;;;;;;;15.30;6.22;;;12.40;99.90;;;;;;5100368;28;20003;-67
2022/10/20 09:21:47;;;;;;;13.80;6.45;;;12.50;99.90;;;;;;5093209;27;20035;-67
2022/10/20 09:24:13;;;;;;;13.30;6.80;;;12.50;99.90;;;;;;5101537;27;20106;-71
2022/10/20 09:26:45;;;;;;;;;;;12.40;99.90;;;;;;5098137;27;20589;-69
2022/10/20 09:29:15;;;;;;;12.73;7.10;;;12.40;99.90;;;;;;5106484;27;19915;-69
2022/10/20 09:31:43;;;;;;;13.75;6.53;;;12.40;99.90;;;;;;5112878;27;20035;-69
2022/10/20 09:34:24;;;;;;;13.20;6.35;;;12.40;99.90;;;;;;5088763;28;20036;-68
2022/10/20 09:36:54;;;;;;;13.88;6.53;;;12.30;99.90;;;;;;5083345;28;20047;-68
2022/10/20 09:39:33;;;;;;;12.88;7.05;;;12.30;99.90;;;;;;5086642;28;20065;-68
2022/10/20 09:42:13;;;;;;;12.70;7.05;;;12.20;99.90;;;;;;5085442;28;20040;-69
2022/10/20 09:44:48;;;;;;;9.30;6.38;;;12.20;99.90;;;;;;5103643;28;20040;-68
2022/10/20 09:47:15;;;;;;;11.13;7.00;;;12.30;99.90;;;;;;5095579;28;20044;-69
2022/10/20 09:49:43;;;;;;;22.67;7.88;;;12.10;99.90;;;;;;5091808;28;20191;-69
2022/10/20 09:52:46;;;;;;;12.05;7.05;;;12.10;99.90;;;;;;5085375;28;20123;-69
2022/10/20 09:55:36;;;;;;;24.27;7.32;;;11.90;99.90;;;;;;5085878;28;20032;-69
2022/10/20 09:58:03;;;;;;;15.35;7.93;;;11.80;99.90;;;;;;5099868;28;20464;-68
2022/10/20 10:00:33;;;;;;;17.10;7.78;;;11.80;99.90;;;;;;5104253;28;20047;-68
2022/10/20 10:03:22;;;;;;;15.60;8.23;;;11.80;99.90;;;;;;5106181;28;20721;-69
2022/10/20 10:05:54;;;;;;;13.90;8.38;;;11.80;99.90;;;;;;5103198;28;20058;-68
2022/10/20 10:08:21;;;;;;;15.32;7.45;;;11.80;99.90;;;;;;5091987;28;20031;-68
2022/10/20 10:11:11;;;;;;;16.45;7.97;;;11.70;99.90;;;;;;5105134;28;20122;-69
2022/10/20 10:13:43;;;;;;;11.88;7.70;;;11.70;99.90;;;;;;5098296;28;20151;-68
2022/10/20 10:16:13;;;;;;;12.00;7.05;;;11.70;99.90;;;;;;5103580;28;20385;-68
2022/10/20 10:18:38;;;;;;;16.05;7.82;;;11.70;99.90;;;;;;5097407;28;20431;-68
2022/10/20 10:21:08;;;;;;;;;;;11.70;99.90;;;;;;5093175;28;20032;-68
2022/10/20 10:23:48;;;;;;;10.60;6.68;;;11.70;99.90;;;;;;5095406;28;19915;-68
2022/10/20 10:26:46;;;;;;;10.50;6.55;;;11.70;99.90;;;;;;5085425;28;20523;-68
2022/10/20 10:29:22;;;;;;;12.80;7.80;;;11.70;99.90;;;;;;5085774;28;20495;-68
2022/10/20 10:32:15;;;;;;;12.77;8.17;;;11.70;99.90;;;;;;5084912;28;20044;-68
2022/10/20 10:35:12;;;;;;;14.30;8.50;;;11.70;99.90;;;;;;5094948;28;20153;-68
2022/10/20 10:37:40;;;;;;;15.27;8.10;;;11.60;99.90;;;;;;5088973;28;20047;-68
2022/10/20 10:40:33;;;;;;;12.68;8.48;;;11.60;99.90;;;;;;5091736;28;20040;-68
2022/10/20 10:43:23;;;;;;;14.88;8.38;;;11.50;99.90;;;;;;5085709;28;20036;-67
2022/10/20 10:45:58;;;;;;;16.73;8.73;;;11.60;99.90;;;;;;5105503;28;20031;-68
2022/10/20 10:49:06;;;;;;;13.85;8.30;;;11.60;99.90;;;;;;5094748;28;20040;-68
2022/10/20 10:52:13;;;;;;;14.82;7.47;;;11.60;99.90;;;;;;5086083;28;20040;-68
2022/10/20 10:54:52;;;;;;;14.25;8.32;;;11.70;99.90;;;;;;5050279;28;20040;-68
2022/10/20 10:57:32;;;;;;;15.40;7.65;;;11.70;99.90;;;;;;5095321;28;20062;-68
2022/10/20 11:00:14;;;;;;;9.90;6.40;;;11.80;99.90;;;;;;5086369;28;20032;-68
2022/10/20 11:03:07;;;;;;;21.08;8.57;;;11.80;99.90;;;;;;5082372;28;20043;-68
2022/10/20 11:05:51;;;;;;;13.77;7.35;;;11.80;99.90;;;;;;5085692;28;20036;-68
2022/10/20 11:09:04;;;;;;;13.60;7.93;;;11.80;99.90;;;;;;5079519;28;20024;-68
2022/10/20 11:12:07;;;;;;;13.95;8.35;;;11.90;99.90;;;;;;5073307;28;20056;-67
2022/10/20 11:15:18;;;;;;;18.50;7.90;;;11.70;99.90;;;;;;5084454;28;20059;-67
2022/10/20 11:18:10;;;;;;;11.63;7.55;;;11.70;99.90;;;;;;5036299;28;20695;-67
2022/10/20 11:20:36;;;;;;;14.85;8.75;;;11.70;99.90;;;;;;5065025;28;20044;-67
2022/10/20 11:23:20;;;;;;;;;;;11.60;99.90;;;;;;5080224;28;20032;-68
2022/10/20 11:26:01;;;;;;;15.05;8.30;;;11.60;99.90;;;;;;5080880;28;19934;-68
2022/10/20 11:28:43;;;;;;;13.68;7.60;;;11.60;99.90;;;;;;5084516;28;20098;-68
2022/10/20 11:31:21;;;;;;;13.88;7.68;;;11.60;99.90;;;;;;5072029;28;20400;-68
2022/10/20 11:33:59;;;;;;;14.05;7.20;;;11.60;99.90;;;;;;5069862;28;20036;-68
2022/10/20 11:36:30;;;;;;;13.88;7.55;;;11.60;99.90;;;;;;5074961;28;20159;-67
2022/10/20 11:38:56;;;;;;;15.00;7.72;;;11.70;99.90;;;;;;5068964;28;20048;-66
2022/10/20 11:41:36;;;;;;;;;;;11.70;99.90;;;;;;5069742;28;20101;-66
2022/10/20 11:44:29;;;;;;;15.13;8.35;;;11.70;99.90;;;;;;5064406;28;19916;-66
2022/10/20 11:47:17;;;;;;;16.42;9.20;;;11.60;99.90;;;;;;5077225;28;20044;-67
2022/10/20 11:49:43;;;;;;;15.73;7.90;;;11.50;99.90;;;;;;5033434;27;20101;-66
2022/10/20 11:52:09;;;;;;;;;;;11.50;99.90;;;;;;5055643;28;20051;-66
2022/10/20 11:55:02;;;;;;;15.18;8.45;;;11.40;99.90;;;;;;5052672;28;19917;-67
2022/10/20 11:58:16;;;;;;;18.92;9.23;;;11.40;99.90;;;;;;5053792;28;20114;-65
2022/10/20 12:00:55;;;;;;;20.30;9.07;;;11.40;99.90;;;;;;5013048;28;20037;-68
2022/10/20 12:03:39;;;;;;;18.00;9.05;;;11.40;99.90;;;;;;5064173;28;20032;-67
2022/10/20 12:06:26;;;;;;;16.35;8.40;;;11.50;99.90;;;;;;5063383;28;20045;-67
2022/10/20 12:09:04;;;;;;;14.48;9.57;;;11.40;99.90;;;;;;5063402;28;20128;-67
2022/10/20 12:12:00;;;;;;;16.05;8.75;;;11.20;99.90;;;;;;5062608;28;20032;-69
2022/10/20 12:14:42;;;;;;;12.35;8.45;;;11.20;99.90;;;;;;5066550;28;20037;-69
2022/10/20 12:17:19;;;;;;;13.75;8.88;;;11.30;99.90;;;;;;5067448;28;20040;-69
2022/10/20 12:19:48;;;;;;;17.80;8.50;;;11.20;99.90;;;;;;5066316;28;20040;-69
2022/10/20 12:22:14;;;;;;;16.75;9.27;;;11.30;99.90;;;;;;5066755;28;20043;-68
2022/10/20 12:24:40;;;;;;;;;;;11.20;99.90;;;;;;5065192;28;20033;-68
2022/10/20 12:27:08;;;;;;;15.30;8.73;;;11.10;99.90;;;;;;5066356;28;20058;-69
2022/10/20 12:29:34;;;;;;;17.45;9.40;;;11.10;99.90;;;;;;5066780;28;20040;-68
2022/10/20 12:32:20;;;;;;;;;;;11.10;99.90;;;;;;5067676;28;20036;-68
2022/10/20 12:34:47;;;;;;;12.18;7.97;;;11.10;99.90;;;;;;5066912;28;20015;-69
2022/10/20 12:37:28;;;;;;;14.38;9.60;;;11.00;99.90;;;;;;5066265;28;20094;-68
2022/10/20 12:40:27;;;;;;;14.65;9.13;;;11.00;99.90;;;;;;5066117;28;20167;-69
2022/10/20 12:42:54;;;;;;;13.55;9.65;;;11.10;99.90;;;;;;5066806;28;20131;-69
2022/10/20 12:45:36;;;;;;;23.23;9.57;;;11.10;99.90;;;;;;5065385;28;20504;-69
2022/10/20 12:48:03;;;;;;;21.45;11.48;;;11.10;99.90;;;;;;5067504;28;20045;-68
2022/10/20 12:50:38;;;;;;;16.52;9.02;;;11.10;99.90;;;;;;5066281;28;20040;-68
2022/10/20 12:53:19;;;;;;;16.05;11.00;;;11.10;99.90;;;;;;5067032;28;20178;-68
2022/10/20 12:56:07;;;;;;;18.50;11.25;;;11.10;99.90;;;;;;5066499;28;20043;-68
2022/10/20 12:58:35;;;;;;;17.05;11.02;;;11.00;99.90;;;;;;5063263;28;20036;-68
2022/10/20 13:01:10;;;;;;;24.27;10.43;;;11.10;99.90;;;;;;5055173;28;20047;-69
2022/10/20 13:03:41;;;;;;;14.80;9.43;;;11.10;99.90;;;;;;5066422;28;20044;-68
2022/10/20 13:06:22;;;;;;;15.73;10.13;;;11.10;99.90;;;;;;5066187;28;20102;-68
2022/10/20 13:09:03;;;;;;;14.45;10.40;;;11.10;99.90;;;;;;5065446;28;20036;-68
2022/10/20 13:11:34;;;;;;;15.52;9.98;;;11.10;99.90;;;;;;5066743;28;20039;-68
2022/10/20 13:14:18;;;;;;;15.20;10.07;;;11.10;99.90;;;;;;5065382;28;20041;-68
2022/10/20 13:17:05;;;;;;;16.65;10.10;;;11.10;99.90;;;;;;5067167;28;20115;-69
2022/10/20 13:19:58;;;;;;;18.58;8.48;;;11.10;99.90;;;;;;5064674;28;20044;-68
2022/10/20 13:22:36;;;;;;;18.73;10.13;;;11.10;99.90;;;;;;5065529;28;20048;-69
2022/10/20 13:25:05;;;;;;;16.30;10.10;;;11.10;99.90;;;;;;5048195;28;20052;-69
2022/10/20 13:27:31;;;;;;;13.35;8.90;;;11.00;99.90;;;;;;5057228;28;20527;-69
2022/10/20 13:29:57;;;;;;;;;;;11.00;99.90;;;;;;5067102;28;20040;-69